Time;durP1;ratioP1;P1;durP2;ratioP2;P2;SDS_P1;SDS_P2;PMS_P1;PMS_P2;Temp;Humidity;BMP_temperature;BMP_pressure;BME280_temperature;BME280_humidity;BME280_pressure;Samples;Min_cycle;Max_cycle;Signal;HPM_P1;HPM_P2
2021/07/23 00:01:10;;;;;;;2.95;1.67;;;17.00;66.40;;;;;;4826098;29;20465;-76
2021/07/23 00:03:38;;;;;;;4.13;1.92;;;17.00;67.30;;;;;;4865250;29;20140;-77
2021/07/23 00:06:14;;;;;;;3.00;1.80;;;16.90;66.80;;;;;;4879855;29;20045;-77
2021/07/23 00:08:41;;;;;;;3.90;1.73;;;16.90;67.00;;;;;;4880238;29;20056;-77
2021/07/23 00:11:08;;;;;;;2.63;1.38;;;16.80;67.20;;;;;;4878351;29;20112;-76
2021/07/23 00:13:35;;;;;;;2.60;1.42;;;16.80;67.10;;;;;;4878336;29;20092;-77
2021/07/23 00:16:02;;;;;;;2.47;1.23;;;16.70;67.80;;;;;;4861585;29;20052;-77
2021/07/23 00:18:29;;;;;;;3.42;1.50;;;16.70;67.20;;;;;;4891107;29;20038;-77
2021/07/23 00:20:56;;;;;;;2.60;1.60;;;16.70;67.40;;;;;;4870261;29;20127;-77
2021/07/23 00:23:23;;;;;;;3.70;1.60;;;16.70;67.40;;;;;;4877992;29;20044;-81
2021/07/23 00:25:50;;;;;;;2.70;1.35;;;16.70;67.50;;;;;;4854593;29;20472;-81
2021/07/23 00:28:17;;;;;;;3.05;1.58;;;16.60;67.50;;;;;;4851048;29;20107;-81
2021/07/23 00:30:44;;;;;;;2.30;1.33;;;16.60;67.60;;;;;;4861466;29;20135;-81
2021/07/23 00:33:12;;;;;;;3.58;1.55;;;16.60;67.70;;;;;;4860222;29;20056;-80
2021/07/23 00:35:39;;;;;;;2.35;1.42;;;16.60;67.80;;;;;;4864615;29;20068;-81
2021/07/23 00:38:06;;;;;;;3.28;1.48;;;16.60;67.80;;;;;;4851802;29;20076;-82
2021/07/23 00:40:34;;;;;;;3.38;1.40;;;16.60;67.80;;;;;;4870419;29;20037;-82
2021/07/23 00:43:02;;;;;;;2.63;1.00;;;16.60;67.90;;;;;;4857248;29;20040;-81
2021/07/23 00:45:30;;;;;;;2.47;1.40;;;16.60;68.60;;;;;;4853831;29;20045;-81
2021/07/23 00:48:01;;;;;;;2.80;1.40;;;16.50;68.00;;;;;;4859792;29;20149;-82
2021/07/23 00:50:31;;;;;;;3.03;1.80;;;16.50;68.80;;;;;;4876600;29;20055;-81
2021/07/23 00:52:59;;;;;;;2.72;1.40;;;16.50;68.20;;;;;;4874927;29;20044;-82
2021/07/23 00:55:27;;;;;;;3.08;1.63;;;16.50;68.30;;;;;;4871076;29;20060;-81
2021/07/23 00:57:57;;;;;;;3.03;1.60;;;16.50;68.40;;;;;;4862190;29;20520;-81
2021/07/23 01:00:26;;;;;;;3.72;1.58;;;16.40;68.40;;;;;;4849598;29;20041;-81
2021/07/23 01:03:04;;;;;;;3.08;1.70;;;16.40;68.50;;;;;;4876712;29;20749;-81
2021/07/23 01:05:32;;;;;;;2.78;1.75;;;16.40;68.60;;;;;;4853519;29;20041;-81
2021/07/23 01:08:01;;;;;;;3.45;1.45;;;16.40;68.70;;;;;;4855367;29;20139;-82
2021/07/23 01:10:36;;;;;;;2.50;1.40;;;16.40;68.80;;;;;;4862482;29;20059;-82
2021/07/23 01:13:21;;;;;;;4.50;1.50;;;16.30;68.80;;;;;;4881496;29;20071;-82
2021/07/23 01:15:50;;;;;;;3.35;1.40;;;16.30;68.80;;;;;;4876489;29;20063;-82
2021/07/23 01:18:19;;;;;;;3.03;1.73;;;16.30;68.90;;;;;;4879225;29;20207;-82
2021/07/23 01:20:55;;;;;;;3.08;1.50;;;16.30;69.00;;;;;;4868765;29;20045;-82
2021/07/23 01:23:29;;;;;;;3.47;1.52;;;16.30;69.20;;;;;;4863807;29;20045;-81
2021/07/23 01:25:58;;;;;;;3.97;1.55;;;16.30;69.20;;;;;;4843212;29;20457;-81
2021/07/23 01:28:29;;;;;;;2.80;1.55;;;16.20;69.20;;;;;;4874058;29;20092;-82
2021/07/23 01:31:03;;;;;;;2.72;1.45;;;16.20;70.00;;;;;;4879891;29;20131;-80
2021/07/23 01:33:35;;;;;;;2.75;1.50;;;16.20;69.50;;;;;;4877125;29;20048;-82
2021/07/23 01:36:04;;;;;;;3.67;1.88;;;16.10;69.40;;;;;;4878884;29;20045;-82
2021/07/23 01:38:37;;;;;;;3.50;1.90;;;16.10;69.50;;;;;;4857052;29;20043;-82
2021/07/23 01:41:06;;;;;;;3.40;1.90;;;16.10;69.60;;;;;;4867783;29;20413;-82
2021/07/23 01:43:33;;;;;;;2.22;1.42;;;16.10;69.80;;;;;;4853658;29;20053;-81
2021/07/23 01:46:01;;;;;;;3.72;1.50;;;16.00;69.80;;;;;;4862247;29;20523;-82
2021/07/23 01:48:43;;;;;;;2.80;1.52;;;16.00;69.90;;;;;;4885452;29;20072;-82
2021/07/23 01:51:28;;;;;;;3.63;1.48;;;16.00;70.00;;;;;;4876573;29;20122;-82
2021/07/23 01:53:55;;;;;;;2.75;1.67;;;15.90;70.10;;;;;;4876508;29;20056;-82
2021/07/23 01:56:24;;;;;;;2.50;1.52;;;15.90;70.10;;;;;;4862816;29;20485;-81
2021/07/23 01:58:56;;;;;;;3.53;1.40;;;15.90;70.20;;;;;;4852021;29;20045;-82
2021/07/23 02:01:26;;;;;;;3.85;2.08;;;15.90;70.30;;;;;;4862007;29;20056;-80
2021/07/23 02:04:09;;;;;;;2.75;1.50;;;15.80;70.30;;;;;;4878764;29;20116;-80
2021/07/23 02:06:37;;;;;;;2.78;1.48;;;15.80;71.00;;;;;;4885878;29;20033;-80
2021/07/23 02:09:04;;;;;;;4.07;1.83;;;15.80;70.50;;;;;;4879758;29;20048;-83
2021/07/23 02:11:36;;;;;;;2.83;1.40;;;15.80;70.60;;;;;;4863277;29;20040;-82
2021/07/23 02:14:07;;;;;;;2.92;1.58;;;15.80;71.20;;;;;;4883844;29;20073;-84
2021/07/23 02:16:35;;;;;;;4.95;1.95;;;15.70;70.60;;;;;;4863832;29;20048;-81
2021/07/23 02:19:03;;;;;;;3.13;1.52;;;15.70;70.80;;;;;;4868746;29;20053;-83
2021/07/23 02:22:04;;;;;;;3.42;1.63;;;15.70;71.50;;;;;;4865942;29;20049;-83
2021/07/23 02:24:31;;;;;;;2.90;1.63;;;15.60;70.90;;;;;;4880614;29;20509;-83
2021/07/23 02:26:58;;;;;;;3.28;1.85;;;15.60;70.90;;;;;;4878643;29;20097;-82
2021/07/23 02:29:26;;;;;;;4.88;1.92;;;15.60;71.00;;;;;;4863289;29;20060;-83
2021/07/23 02:31:54;;;;;;;3.95;1.80;;;15.60;71.10;;;;;;4861779;29;20075;-82
2021/07/23 02:34:22;;;;;;;3.38;1.70;;;15.60;71.10;;;;;;4859717;29;20045;-81
2021/07/23 02:36:52;;;;;;;3.85;1.77;;;15.60;71.10;;;;;;4857358;29;20540;-77
2021/07/23 02:39:24;;;;;;;3.38;1.63;;;15.60;71.20;;;;;;4851419;29;20416;-77
2021/07/23 02:41:58;;;;;;;3.78;1.73;;;15.60;71.30;;;;;;4887171;29;20041;-77
2021/07/23 02:44:27;;;;;;;3.42;2.10;;;15.50;71.30;;;;;;4862169;29;20493;-77
2021/07/23 02:46:54;;;;;;;3.78;1.70;;;15.50;72.10;;;;;;4876738;29;20064;-77
2021/07/23 02:49:22;;;;;;;3.20;1.75;;;15.50;71.40;;;;;;4862784;29;20033;-77
2021/07/23 02:51:52;;;;;;;2.85;1.33;;;15.50;71.40;;;;;;4883071;29;20132;-81
2021/07/23 02:54:19;;;;;;;3.80;1.40;;;15.50;71.40;;;;;;4859669;29;20415;-81
2021/07/23 02:56:47;;;;;;;3.50;1.55;;;15.50;71.40;;;;;;4878600;29;20045;-81
2021/07/23 02:59:14;;;;;;;2.70;1.70;;;15.50;71.60;;;;;;4864795;29;20060;-81
2021/07/23 03:01:47;;;;;;;2.83;1.40;;;15.50;71.80;;;;;;4881364;29;20114;-80
2021/07/23 03:04:23;;;;;;;4.05;1.90;;;15.50;71.80;;;;;;4873551;29;20131;-82
2021/07/23 03:06:52;;;;;;;2.72;1.50;;;15.40;71.80;;;;;;4858675;29;20049;-82
2021/07/23 03:09:20;;;;;;;3.63;1.70;;;15.40;71.80;;;;;;4888668;29;20056;-80
2021/07/23 03:11:47;;;;;;;3.40;1.90;;;15.40;71.90;;;;;;4859080;29;20049;-81
2021/07/23 03:14:15;;;;;;;3.28;1.55;;;15.40;71.90;;;;;;4870695;29;20040;-81
2021/07/23 03:17:08;;;;;;;2.90;1.52;;;15.40;72.00;;;;;;4877242;29;20052;-81
2021/07/23 03:19:36;;;;;;;3.97;1.58;;;15.40;72.00;;;;;;4878455;29;20504;-81
2021/07/23 03:22:03;;;;;;;2.85;1.40;;;15.40;72.00;;;;;;4861697;29;20409;-81
2021/07/23 03:24:34;;;;;;;4.70;1.88;;;15.40;72.10;;;;;;4862288;29;20135;-81
2021/07/23 03:27:02;;;;;;;3.45;1.80;;;15.40;72.10;;;;;;4855912;29;20136;-81
2021/07/23 03:29:35;;;;;;;4.13;1.48;;;15.40;72.20;;;;;;4866261;29;20131;-80
2021/07/23 03:32:03;;;;;;;3.50;1.60;;;15.40;72.20;;;;;;4866067;29;20064;-76
2021/07/23 03:34:32;;;;;;;3.95;2.03;;;15.40;72.30;;;;;;4874150;29;20047;-77
2021/07/23 03:37:04;;;;;;;3.53;1.77;;;15.30;72.30;;;;;;4863602;29;20132;-76
2021/07/23 03:39:53;;;;;;;3.42;1.50;;;15.30;72.40;;;;;;4893812;29;20110;-76
2021/07/23 03:42:32;;;;;;;3.65;2.25;;;15.30;72.40;;;;;;4859711;29;20492;-76
2021/07/23 03:45:17;;;;;;;3.17;1.65;;;15.30;72.50;;;;;;4864918;29;20055;-76
2021/07/23 03:47:50;;;;;;;4.45;2.17;;;15.30;72.50;;;;;;4864555;29;20473;-76
2021/07/23 03:50:17;;;;;;;4.20;1.88;;;15.30;72.60;;;;;;4838908;29;20053;-76
2021/07/23 03:52:53;;;;;;;3.38;2.00;;;15.30;72.60;;;;;;4880348;29;20104;-76
2021/07/23 03:55:40;;;;;;;3.55;1.58;;;15.30;72.70;;;;;;4864622;29;20089;-76
2021/07/23 03:58:09;;;;;;;4.50;2.08;;;15.30;72.70;;;;;;4862785;29;20041;-76
2021/07/23 04:00:38;;;;;;;5.00;1.85;;;15.20;72.70;;;;;;4861462;29;20075;-76
2021/07/23 04:03:06;;;;;;;4.15;1.98;;;15.20;72.90;;;;;;4869215;29;20044;-76
2021/07/23 04:05:33;;;;;;;3.90;1.85;;;15.20;72.90;;;;;;4856898;29;20109;-76
2021/07/23 04:08:04;;;;;;;3.80;2.13;;;15.20;73.00;;;;;;4871479;29;20088;-76
2021/07/23 04:10:33;;;;;;;6.00;2.05;;;15.20;73.00;;;;;;4879581;29;20083;-76
2021/07/23 04:13:01;;;;;;;4.78;1.85;;;15.20;73.00;;;;;;4871445;29;20600;-76
2021/07/23 04:15:35;;;;;;;3.10;1.48;;;15.20;73.00;;;;;;4859409;29;20040;-76
2021/07/23 04:18:10;;;;;;;3.60;1.75;;;15.20;73.00;;;;;;4852877;29;20053;-76
2021/07/23 04:20:57;;;;;;;3.28;1.88;;;15.20;73.00;;;;;;4893245;29;20052;-81
2021/07/23 04:23:25;;;;;;;3.33;1.58;;;15.20;73.00;;;;;;4877569;29;20072;-81
2021/07/23 04:25:52;;;;;;;3.92;1.63;;;15.20;73.00;;;;;;4878211;29;20048;-81
2021/07/23 04:28:21;;;;;;;3.92;1.45;;;15.20;73.00;;;;;;4871442;29;20049;-81
2021/07/23 04:30:49;;;;;;;3.10;1.45;;;15.30;73.10;;;;;;4859319;29;20140;-81
2021/07/23 04:33:19;;;;;;;3.13;1.70;;;15.30;73.00;;;;;;4865316;29;20055;-76
2021/07/23 04:36:20;;;;;;;4.53;1.77;;;15.30;73.00;;;;;;4863648;29;20136;-76
2021/07/23 04:38:47;;;;;;;3.67;1.92;;;15.30;73.10;;;;;;4897918;29;20032;-76
2021/07/23 04:41:15;;;;;;;4.05;1.83;;;15.30;73.20;;;;;;4891280;29;20045;-76
2021/07/23 04:43:50;;;;;;;3.33;1.48;;;15.30;73.20;;;;;;4864925;29;20131;-76
2021/07/23 04:46:17;;;;;;;4.07;2.15;;;15.30;73.80;;;;;;4883669;29;20436;-76
2021/07/23 04:48:46;;;;;;;3.53;1.83;;;15.30;73.10;;;;;;4868304;29;20055;-76
2021/07/23 04:51:24;;;;;;;3.58;2.15;;;15.40;73.20;;;;;;4870216;29;20126;-76
2021/07/23 04:54:27;;;;;;;3.47;1.37;;;15.40;73.80;;;;;;4844139;29;20447;-76
2021/07/23 04:57:14;;;;;;;2.90;1.35;;;15.40;73.00;;;;;;4882725;29;20347;-76
2021/07/23 04:59:44;;;;;;;3.03;1.25;;;15.60;72.90;;;;;;4888335;29;20141;-76
2021/07/23 05:02:11;;;;;;;4.05;2.22;;;15.70;72.70;;;;;;4877015;29;20052;-76
2021/07/23 05:04:38;;;;;;;3.92;1.73;;;15.80;72.60;;;;;;4869404;29;20053;-77
2021/07/23 05:07:06;;;;;;;4.50;2.08;;;15.80;72.70;;;;;;4883480;29;20045;-76
2021/07/23 05:09:33;;;;;;;2.60;1.42;;;15.80;72.70;;;;;;4876431;29;20037;-81
2021/07/23 05:12:04;;;;;;;3.28;1.48;;;15.80;72.70;;;;;;4870701;29;20059;-81
2021/07/23 05:14:31;;;;;;;2.58;1.45;;;15.80;72.70;;;;;;4881624;29;20041;-81
2021/07/23 05:16:59;;;;;;;2.40;1.20;;;15.80;72.70;;;;;;4883171;29;20544;-81
2021/07/23 05:19:27;;;;;;;3.95;1.60;;;15.90;72.60;;;;;;4897359;29;20104;-81
2021/07/23 05:21:54;;;;;;;6.35;1.70;;;15.90;72.60;;;;;;4897889;29;20123;-81
2021/07/23 05:24:21;;;;;;;3.65;1.70;;;16.00;72.50;;;;;;4889315;29;20041;-81
2021/07/23 05:26:48;;;;;;;2.72;1.23;;;16.00;72.40;;;;;;4865860;29;20040;-81
2021/07/23 05:29:15;;;;;;;3.67;1.75;;;16.10;72.30;;;;;;4883185;29;20048;-81
2021/07/23 05:31:42;;;;;;;2.30;1.10;;;16.10;72.20;;;;;;4885845;29;20053;-81
2021/07/23 05:34:09;;;;;;;2.88;1.65;;;16.20;72.10;;;;;;4882435;29;20072;-81
2021/07/23 05:36:36;;;;;;;2.33;1.00;;;16.30;72.00;;;;;;4867790;29;20128;-81
2021/07/23 05:39:03;;;;;;;3.17;1.30;;;16.30;71.90;;;;;;4849188;29;20477;-81
2021/07/23 05:41:30;;;;;;;4.80;1.95;;;16.40;71.80;;;;;;4876605;29;20051;-81
2021/07/23 05:43:57;;;;;;;2.10;0.95;;;16.50;71.70;;;;;;4882593;29;20093;-81
2021/07/23 05:46:24;;;;;;;2.72;0.98;;;16.60;71.60;;;;;;4867059;29;20109;-81
2021/07/23 05:48:51;;;;;;;2.03;1.13;;;16.70;71.40;;;;;;4840662;29;20076;-81
2021/07/23 05:51:18;;;;;;;5.38;1.10;;;16.80;71.30;;;;;;4882505;29;20041;-76
2021/07/23 05:53:45;;;;;;;2.55;1.02;;;16.90;71.10;;;;;;4879253;29;20449;-77
2021/07/23 05:56:12;;;;;;;2.67;1.30;;;16.90;70.90;;;;;;4863179;29;20045;-76
2021/07/23 05:58:39;;;;;;;3.75;1.13;;;17.00;70.70;;;;;;4873173;29;20101;-77
2021/07/23 06:01:07;;;;;;;3.25;1.20;;;17.10;70.60;;;;;;4880161;29;20871;-81
2021/07/23 06:03:35;;;;;;;1.95;0.82;;;17.20;70.50;;;;;;4876547;29;20132;-81
2021/07/23 06:06:04;;;;;;;1.90;1.15;;;17.30;70.40;;;;;;4880359;29;20500;-82
2021/07/23 06:08:50;;;;;;;2.08;0.80;;;17.40;70.20;;;;;;4858289;29;20502;-82
2021/07/23 06:11:20;;;;;;;3.30;1.02;;;17.50;70.00;;;;;;4844174;29;20454;-81
2021/07/23 06:13:47;;;;;;;1.63;0.80;;;17.50;69.80;;;;;;4836240;29;20045;-81
2021/07/23 06:16:14;;;;;;;1.50;0.60;;;17.60;69.70;;;;;;4846953;29;20037;-81
2021/07/23 06:18:41;;;;;;;2.53;0.82;;;17.70;69.60;;;;;;4869681;29;20041;-81
2021/07/23 06:21:08;;;;;;;1.83;0.50;;;17.80;69.40;;;;;;4823831;29;20041;-81
2021/07/23 06:23:36;;;;;;;1.88;0.70;;;17.90;69.20;;;;;;4870221;29;20070;-81
2021/07/23 06:26:04;;;;;;;1.55;0.85;;;18.00;69.00;;;;;;4861729;29;20048;-81
2021/07/23 06:28:32;;;;;;;1.40;0.63;;;18.10;68.90;;;;;;4860764;29;20132;-81
2021/07/23 06:31:03;;;;;;;1.80;0.75;;;18.10;68.70;;;;;;4863212;29;20044;-81
2021/07/23 06:33:31;;;;;;;1.40;0.70;;;18.30;68.60;;;;;;4862738;29;20057;-81
2021/07/23 06:36:00;;;;;;;2.25;0.80;;;18.40;68.50;;;;;;4847545;29;20306;-81
2021/07/23 06:38:27;;;;;;;1.65;0.82;;;18.40;68.20;;;;;;4846167;29;20071;-81
2021/07/23 06:40:54;;;;;;;3.45;0.85;;;18.50;68.20;;;;;;4860742;29;20045;-81
2021/07/23 06:43:21;;;;;;;1.70;0.80;;;18.60;68.00;;;;;;4853190;29;20044;-81
2021/07/23 06:45:53;;;;;;;2.05;0.95;;;18.70;67.90;;;;;;4874933;29;20041;-77
2021/07/23 06:48:20;;;;;;;2.05;0.90;;;18.80;67.60;;;;;;4870521;29;20041;-77
2021/07/23 06:50:51;;;;;;;1.65;0.90;;;18.90;67.40;;;;;;4857470;29;20053;-77
2021/07/23 06:53:19;;;;;;;1.58;0.80;;;19.10;67.20;;;;;;4842744;29;20056;-81
2021/07/23 06:55:46;;;;;;;1.55;0.70;;;19.30;66.90;;;;;;4841933;29;20045;-82
2021/07/23 06:58:13;;;;;;;1.33;0.68;;;19.40;66.60;;;;;;4830740;29;20497;-82
2021/07/23 07:00:43;;;;;;;2.53;1.20;;;19.50;66.60;;;;;;4869563;29;20379;-81
2021/07/23 07:03:10;;;;;;;2.90;1.08;;;19.60;66.50;;;;;;4859240;29;20041;-79
2021/07/23 07:05:37;;;;;;;2.85;1.10;;;19.60;67.10;;;;;;4875382;29;20112;-82
2021/07/23 07:08:04;;;;;;;2.78;1.23;;;19.70;66.30;;;;;;4865699;29;20496;-80
2021/07/23 07:10:31;;;;;;;1.60;0.75;;;19.80;66.20;;;;;;4870288;29;20520;-81
2021/07/23 07:13:00;;;;;;;2.97;1.38;;;19.80;66.10;;;;;;4894375;29;20044;-84
2021/07/23 07:15:27;;;;;;;2.13;0.90;;;19.90;66.00;;;;;;4876717;29;20052;-79
2021/07/23 07:17:58;;;;;;;2.75;1.20;;;19.90;65.90;;;;;;4884774;29;20072;-79
2021/07/23 07:20:25;;;;;;;2.17;1.13;;;19.90;65.80;;;;;;4867839;29;20041;-82
2021/07/23 07:22:53;;;;;;;3.22;1.08;;;19.80;65.60;;;;;;4888698;29;20052;-80
2021/07/23 07:25:21;;;;;;;1.77;0.82;;;19.90;65.70;;;;;;4892038;29;20449;-82
2021/07/23 07:27:48;;;;;;;1.92;0.80;;;19.90;65.50;;;;;;4865920;29;20060;-81
2021/07/23 07:30:16;;;;;;;2.13;1.00;;;19.90;65.30;;;;;;4867466;29;20068;-80
2021/07/23 07:32:43;;;;;;;1.73;0.90;;;20.00;65.30;;;;;;4877846;29;20105;-81
2021/07/23 07:35:10;;;;;;;2.40;1.10;;;20.00;65.00;;;;;;4875886;29;20053;-81
2021/07/23 07:37:37;;;;;;;1.70;0.80;;;20.10;64.90;;;;;;4860828;29;20037;-81
2021/07/23 07:40:06;;;;;;;2.55;1.25;;;20.20;64.80;;;;;;4894955;29;20041;-81
2021/07/23 07:42:33;;;;;;;1.63;0.93;;;20.30;64.60;;;;;;4867082;29;20052;-81
2021/07/23 07:45:05;;;;;;;1.85;0.90;;;20.30;64.40;;;;;;4898115;29;20041;-80
2021/07/23 07:47:33;;;;;;;1.77;0.95;;;20.40;64.40;;;;;;4880219;29;20044;-81
2021/07/23 07:50:00;;;;;;;2.25;1.10;;;20.40;64.20;;;;;;4877664;29;20068;-80
2021/07/23 07:52:27;;;;;;;2.08;1.00;;;20.40;64.20;;;;;;4864845;29;20569;-81
2021/07/23 07:54:54;;;;;;;1.70;0.85;;;20.30;64.80;;;;;;4889071;29;20049;-80
2021/07/23 07:57:22;;;;;;;2.17;1.00;;;20.30;64.20;;;;;;4891578;29;20500;-81
2021/07/23 07:59:50;;;;;;;2.38;1.15;;;20.40;64.10;;;;;;4863746;29;20494;-82
2021/07/23 08:02:18;;;;;;;2.65;1.00;;;20.60;63.90;;;;;;4876990;29;20105;-79
2021/07/23 08:04:46;;;;;;;3.45;1.55;;;20.60;63.70;;;;;;4882686;29;20045;-78
2021/07/23 08:07:18;;;;;;;1.98;0.82;;;20.60;63.50;;;;;;4863921;29;20143;-80
2021/07/23 08:09:53;;;;;;;2.20;1.15;;;20.70;63.50;;;;;;4849260;29;20482;-80
2021/07/23 08:12:23;;;;;;;2.65;1.15;;;20.70;63.20;;;;;;4868325;29;20044;-82
2021/07/23 08:14:50;;;;;;;2.38;1.10;;;20.80;63.20;;;;;;4866670;29;20455;-78
2021/07/23 08:17:18;;;;;;;1.95;0.80;;;20.80;63.10;;;;;;4863616;29;20045;-79
2021/07/23 08:19:46;;;;;;;2.83;1.23;;;20.90;63.00;;;;;;4877935;29;20045;-80
2021/07/23 08:22:13;;;;;;;4.65;1.40;;;20.90;62.80;;;;;;4836700;29;20043;-80
2021/07/23 08:24:40;;;;;;;2.72;1.60;;;21.00;62.80;;;;;;4849482;29;20041;-80
2021/07/23 08:27:07;;;;;;;3.08;1.30;;;21.00;63.30;;;;;;4864449;29;20049;-80
2021/07/23 08:29:34;;;;;;;3.10;1.05;;;20.90;62.70;;;;;;4865989;29;20049;-78
2021/07/23 08:32:20;;;;;;;3.15;1.35;;;21.00;62.80;;;;;;4842325;29;20038;-79
2021/07/23 08:34:48;;;;;;;2.60;1.27;;;21.10;62.60;;;;;;4874534;29;20453;-79
2021/07/23 08:37:15;;;;;;;2.13;1.08;;;21.10;62.80;;;;;;4848910;29;20445;-79
2021/07/23 08:39:42;;;;;;;2.25;1.10;;;21.10;62.60;;;;;;4849140;29;20048;-82
2021/07/23 08:42:36;;;;;;;2.60;1.30;;;21.10;62.50;;;;;;4873988;29;20033;-79
2021/07/23 08:45:05;;;;;;;2.35;0.93;;;21.20;62.40;;;;;;4830200;29;20554;-77
2021/07/23 08:47:35;;;;;;;1.83;0.82;;;21.20;62.60;;;;;;4847726;29;20097;-78
2021/07/23 08:50:04;;;;;;;2.53;0.88;;;21.30;62.50;;;;;;4876540;29;20053;-78
2021/07/23 08:52:48;;;;;;;3.45;1.30;;;21.30;62.20;;;;;;4844757;29;20356;-78
2021/07/23 08:55:17;;;;;;;2.45;1.08;;;21.20;62.30;;;;;;4852708;29;20127;-79
2021/07/23 08:57:45;;;;;;;2.15;1.13;;;21.10;62.60;;;;;;4869262;29;20041;-78
2021/07/23 09:00:18;;;;;;;4.00;1.52;;;21.00;62.70;;;;;;4867922;29;20073;-78
2021/07/23 09:03:00;;;;;;;2.88;1.23;;;21.10;62.80;;;;;;4858192;29;20060;-78
2021/07/23 09:05:35;;;;;;;2.70;1.48;;;21.10;62.70;;;;;;4841185;29;20057;-78
2021/07/23 09:08:17;;;;;;;2.70;1.08;;;21.10;62.80;;;;;;4871749;29;20428;-79
2021/07/23 09:10:46;;;;;;;3.20;1.30;;;21.20;62.50;;;;;;4864515;29;20059;-78
2021/07/23 09:13:24;;;;;;;1.63;0.93;;;21.30;62.50;;;;;;4864150;29;20061;-78
2021/07/23 09:15:51;;;;;;;2.22;1.08;;;21.40;62.30;;;;;;4893648;29;21095;-78
2021/07/23 09:18:30;;;;;;;3.03;1.15;;;21.40;62.20;;;;;;4876844;29;21018;-80
2021/07/23 09:20:59;;;;;;;2.20;0.90;;;21.50;62.10;;;;;;4877953;29;20191;-79
2021/07/23 09:23:32;;;;;;;2.75;1.30;;;21.60;62.10;;;;;;4874273;29;20100;-81
2021/07/23 09:26:02;;;;;;;2.45;1.10;;;21.60;61.90;;;;;;4877688;29;20504;-80
2021/07/23 09:28:34;;;;;;;2.70;1.10;;;21.60;62.00;;;;;;4877753;29;20036;-80
2021/07/23 09:31:03;;;;;;;2.53;1.10;;;21.70;61.80;;;;;;4864463;29;20044;-79
2021/07/23 09:33:41;;;;;;;2.58;1.02;;;21.70;61.90;;;;;;4897779;29;20401;-79
2021/07/23 09:36:12;;;;;;;2.38;1.10;;;21.60;61.90;;;;;;4891633;29;20048;-80
2021/07/23 09:38:44;;;;;;;2.67;1.08;;;21.40;62.10;;;;;;4864163;29;20058;-79
2021/07/23 09:41:24;;;;;;;2.17;0.95;;;21.30;62.30;;;;;;4886405;29;20501;-79
2021/07/23 09:44:02;;;;;;;4.00;1.58;;;21.30;62.50;;;;;;4894554;29;20064;-78
2021/07/23 09:46:48;;;;;;;2.55;1.15;;;21.30;62.40;;;;;;4896315;29;20045;-80
2021/07/23 09:49:27;;;;;;;3.30;1.55;;;21.40;62.30;;;;;;4864291;29;20472;-78
2021/07/23 09:51:57;;;;;;;2.90;1.33;;;21.60;62.10;;;;;;4880872;29;20052;-78
2021/07/23 09:54:24;;;;;;;3.22;1.60;;;21.60;62.00;;;;;;4898499;29;20055;-78
2021/07/23 09:56:51;;;;;;;3.50;1.30;;;21.70;61.80;;;;;;4882526;29;20565;-78
2021/07/23 10:00:03;;;;;;;2.95;1.38;;;21.80;61.70;;;;;;4876853;29;20104;-78
2021/07/23 10:02:32;;;;;;;2.85;0.93;;;22.00;61.30;;;;;;4872945;29;20047;-76
2021/07/23 10:05:03;;;;;;;2.47;1.17;;;21.90;61.40;;;;;;4874656;29;20048;-77
2021/07/23 10:07:37;;;;;;;2.42;1.00;;;21.90;61.40;;;;;;4856459;29;20475;-77
2021/07/23 10:10:08;;;;;;;2.65;1.02;;;22.00;61.40;;;;;;4871157;29;20064;-78
2021/07/23 10:12:37;;;;;;;2.67;1.40;;;22.00;61.30;;;;;;4880867;29;20112;-77
2021/07/23 10:15:05;;;;;;;3.67;1.27;;;22.00;61.10;;;;;;4875797;29;20112;-76
2021/07/23 10:17:35;;;;;;;3.33;1.58;;;22.00;61.40;;;;;;4864739;29;20053;-76
2021/07/23 10:20:03;;;;;;;3.05;1.40;;;22.00;61.40;;;;;;4897565;29;20045;-77
2021/07/23 10:22:31;;;;;;;2.67;1.35;;;22.00;61.10;;;;;;4884200;29;20037;-77
2021/07/23 10:24:59;;;;;;;2.95;1.10;;;22.10;61.00;;;;;;4863841;29;20056;-83
2021/07/23 10:27:26;;;;;;;3.97;1.33;;;22.20;60.80;;;;;;4880090;29;20080;-80
2021/07/23 10:29:54;;;;;;;2.40;1.25;;;22.30;60.50;;;;;;4865486;29;20512;-75
2021/07/23 10:32:27;;;;;;;3.03;1.38;;;22.40;60.30;;;;;;4870722;29;20076;-76
2021/07/23 10:35:21;;;;;;;3.65;1.30;;;22.40;59.90;;;;;;4893877;29;20040;-77
2021/07/23 10:37:50;;;;;;;2.10;1.08;;;22.50;59.90;;;;;;4879740;29;20045;-79
2021/07/23 10:40:19;;;;;;;2.65;1.35;;;22.50;59.90;;;;;;4882062;29;20067;-77
2021/07/23 10:42:47;;;;;;;2.22;1.10;;;22.60;59.60;;;;;;4878635;29;20458;-78
2021/07/23 10:45:20;;;;;;;3.05;1.20;;;22.50;59.70;;;;;;4893949;29;20041;-81
2021/07/23 10:47:51;;;;;;;1.88;0.95;;;22.60;59.50;;;;;;4876447;29;20410;-77
2021/07/23 10:50:23;;;;;;;4.30;1.70;;;22.70;59.30;;;;;;4855993;29;20048;-81
2021/07/23 10:52:51;;;;;;;2.40;1.30;;;22.60;59.20;;;;;;4876670;29;20141;-80
2021/07/23 10:55:24;;;;;;;2.67;1.20;;;22.60;59.30;;;;;;4891512;29;20045;-81
2021/07/23 10:58:09;;;;;;;4.07;1.20;;;22.70;59.20;;;;;;4885954;29;20040;-81
2021/07/23 11:00:55;;;;;;;2.33;0.90;;;22.80;58.80;;;;;;4871975;29;20044;-81
2021/07/23 11:03:39;;;;;;;3.08;1.30;;;22.90;58.80;;;;;;4873906;29;20128;-79
2021/07/23 11:06:12;;;;;;;2.20;1.00;;;23.00;58.70;;;;;;4889274;29;20092;-78
2021/07/23 11:08:47;;;;;;;2.28;0.80;;;23.10;58.50;;;;;;4891904;29;20095;-78
2021/07/23 11:11:16;;;;;;;2.65;0.95;;;23.10;58.40;;;;;;4875957;29;20044;-77
2021/07/23 11:13:44;;;;;;;2.90;1.10;;;23.10;58.30;;;;;;4843214;29;20114;-77
2021/07/23 11:16:16;;;;;;;3.38;1.10;;;23.10;58.20;;;;;;4874137;29;20052;-79
2021/07/23 11:18:50;;;;;;;;;;;23.10;58.10;;;;;;4859088;29;20054;-76
2021/07/23 11:21:18;;;;;;;1.85;0.80;;;22.90;58.50;;;;;;4886240;29;19924;-82
2021/07/23 11:23:46;;;;;;;2.15;1.13;;;22.80;59.20;;;;;;4875863;29;20497;-81
2021/07/23 11:26:29;;;;;;;2.10;1.33;;;23.00;58.40;;;;;;4868884;29;20124;-81
2021/07/23 11:28:57;;;;;;;2.30;1.02;;;23.10;58.00;;;;;;4873406;29;20393;-80
2021/07/23 11:31:36;;;;;;;2.92;1.13;;;23.40;57.60;;;;;;4864017;29;20037;-80
2021/07/23 11:34:25;;;;;;;2.10;1.05;;;23.60;57.10;;;;;;4868886;29;20041;-80
2021/07/23 11:36:54;;;;;;;2.30;0.90;;;23.70;56.90;;;;;;4887494;29;20104;-80
2021/07/23 11:39:24;;;;;;;2.50;1.00;;;23.80;56.90;;;;;;4875721;29;20044;-83
2021/07/23 11:42:04;;;;;;;1.80;0.90;;;23.80;56.80;;;;;;4860026;29;20041;-81
2021/07/23 11:44:32;;;;;;;3.08;1.27;;;23.80;56.80;;;;;;4870969;29;20100;-81
2021/07/23 11:47:01;;;;;;;2.50;1.13;;;23.80;56.90;;;;;;4891598;29;20053;-83
2021/07/23 11:49:31;;;;;;;2.47;1.20;;;23.80;56.90;;;;;;4859979;29;20052;-83
2021/07/23 11:51:58;;;;;;;2.45;1.30;;;23.70;56.90;;;;;;4880633;29;20138;-83
2021/07/23 11:54:26;;;;;;;3.28;1.30;;;23.70;57.20;;;;;;4861427;29;20160;-83
2021/07/23 11:57:01;;;;;;;2.75;1.30;;;23.80;57.10;;;;;;4861516;29;20041;-83
2021/07/23 11:59:36;;;;;;;2.45;1.10;;;23.80;56.90;;;;;;4892961;29;20041;-83
2021/07/23 12:02:08;;;;;;;4.07;1.95;;;24.00;57.30;;;;;;4895691;29;20544;-85
2021/07/23 12:04:41;;;;;;;3.45;1.63;;;24.00;56.20;;;;;;4879020;29;20037;-84
2021/07/23 12:07:09;;;;;;;3.45;1.70;;;24.00;56.20;;;;;;4864341;29;20063;-80
2021/07/23 12:09:36;;;;;;;3.47;1.70;;;24.20;55.80;;;;;;4869634;29;20139;-81
2021/07/23 12:12:05;;;;;;;2.97;1.50;;;24.70;55.10;;;;;;4872697;29;20064;-80
2021/07/23 12:14:32;;;;;;;2.80;1.58;;;25.00;54.30;;;;;;4867411;29;20052;-80
2021/07/23 12:17:00;;;;;;;3.42;1.83;;;25.60;53.70;;;;;;4870292;29;20073;-81
2021/07/23 12:19:27;;;;;;;3.28;1.60;;;25.80;53.00;;;;;;4874055;29;20039;-82
2021/07/23 12:22:11;;;;;;;4.63;2.08;;;25.50;53.30;;;;;;4886236;29;20044;-86
2021/07/23 12:24:38;;;;;;;3.13;1.77;;;25.10;53.80;;;;;;4873097;29;20044;-84
2021/07/23 12:27:19;;;;;;;3.80;1.85;;;24.90;54.20;;;;;;4876438;29;20080;-86
2021/07/23 12:29:47;;;;;;;2.53;1.40;;;25.10;54.10;;;;;;4861185;29;20144;-83
2021/07/23 12:32:16;;;;;;;3.22;1.35;;;25.00;54.10;;;;;;4893271;29;20079;-83
2021/07/23 12:34:53;;;;;;;3.90;2.08;;;25.00;54.00;;;;;;4893545;29;20045;-87
2021/07/23 12:37:20;;;;;;;3.88;1.45;;;24.90;53.80;;;;;;4877679;29;20045;-85
2021/07/23 12:40:09;;;;;;;3.50;1.83;;;25.10;54.00;;;;;;4879771;29;20084;-83
2021/07/23 12:42:36;;;;;;;3.83;1.77;;;25.60;53.10;;;;;;4876115;29;20049;-84
2021/07/23 12:45:04;;;;;;;3.95;1.88;;;26.40;52.40;;;;;;4874558;29;20116;-87
2021/07/23 12:47:32;;;;;;;4.65;2.20;;;26.50;51.80;;;;;;4891655;29;20040;-84
2021/07/23 12:50:13;;;;;;;3.65;1.90;;;26.50;51.70;;;;;;4889524;29;20100;-83
2021/07/23 12:52:56;;;;;;;3.38;1.75;;;27.00;51.30;;;;;;4876169;29;20493;-77
2021/07/23 12:55:33;;;;;;;4.72;2.50;;;27.40;50.90;;;;;;4874285;29;20497;-79
2021/07/23 12:58:06;;;;;;;2.85;1.70;;;27.00;50.80;;;;;;4879896;29;20052;-80
2021/07/23 13:00:35;;;;;;;4.18;1.73;;;26.60;51.20;;;;;;4897053;29;20120;-81
2021/07/23 13:03:02;;;;;;;2.67;1.50;;;27.20;50.90;;;;;;4876375;29;20104;-79
2021/07/23 13:05:37;;;;;;;4.72;2.28;;;27.90;50.00;;;;;;4851627;29;20729;-81
2021/07/23 13:08:06;;;;;;;6.60;3.05;;;28.70;49.80;;;;;;4869980;29;20542;-82